createdAt,value
2023-03-13T00:00:56.099Z,6.50
2023-03-13T00:03:25.870Z,6.20
2023-03-13T00:05:57.249Z,6.30
2023-03-13T00:08:25.895Z,6.10
2023-03-13T00:10:54.279Z,5.77
2023-03-13T00:13:22.707Z,4.97
2023-03-13T00:15:51.088Z,5.30
2023-03-13T00:18:19.477Z,4.70
2023-03-13T00:20:50.649Z,5.40
2023-03-13T00:23:19.048Z,4.90
2023-03-13T00:25:47.448Z,4.90
2023-03-13T00:28:15.852Z,4.50
2023-03-13T00:30:44.368Z,4.80
2023-03-13T00:33:12.800Z,4.90
2023-03-13T00:35:41.576Z,4.90
2023-03-13T00:38:11.489Z,4.27
2023-03-13T00:40:39.974Z,4.30
2023-03-13T00:43:08.613Z,4.43
2023-03-13T00:45:37.048Z,4.50
2023-03-13T00:48:05.540Z,4.60
2023-03-13T00:50:34.007Z,4.20
2023-03-13T00:53:02.414Z,4.63
2023-03-13T00:55:32.168Z,4.67
2023-03-13T00:58:00.579Z,4.60
2023-03-13T01:00:28.972Z,4.23
2023-03-13T01:02:57.512Z,4.63
2023-03-13T01:05:26.014Z,4.60
2023-03-13T01:07:54.403Z,4.70
2023-03-13T01:10:22.782Z,5.47
2023-03-13T01:12:52.557Z,4.83
2023-03-13T01:15:20.954Z,5.17
2023-03-13T01:17:49.424Z,5.33
2023-03-13T01:20:18.204Z,5.60
2023-03-13T01:22:46.586Z,5.30
2023-03-13T01:25:14.972Z,4.90
2023-03-13T01:27:43.393Z,5.30
2023-03-13T01:30:14.104Z,5.33
2023-03-13T01:32:42.606Z,4.70
2023-03-13T01:35:11.180Z,5.00
2023-03-13T01:37:40.080Z,5.67
2023-03-13T01:40:08.942Z,5.13
2023-03-13T01:42:51.199Z,5.03
2023-03-13T01:45:37.950Z,5.07
2023-03-13T01:48:07.928Z,5.13
2023-03-13T01:50:36.329Z,5.23
2023-03-13T01:53:04.736Z,4.97
2023-03-13T01:55:33.248Z,5.90
2023-03-13T01:58:01.873Z,5.47
2023-03-13T02:00:32.689Z,5.80
2023-03-13T02:03:05.579Z,5.90
2023-03-13T02:05:35.552Z,5.57
2023-03-13T02:08:05.685Z,5.40
2023-03-13T02:10:35.754Z,5.63
2023-03-13T02:13:04.605Z,6.27
2023-03-13T02:15:33.385Z,6.20
2023-03-13T02:18:02.076Z,6.30
2023-03-13T02:20:30.656Z,6.13
2023-03-13T02:23:02.836Z,6.30
2023-03-13T02:25:36.563Z,6.27
2023-03-13T02:28:06.550Z,6.20
2023-03-13T02:30:35.189Z,6.30
2023-03-13T02:33:04.582Z,7.03
2023-03-13T02:35:33.916Z,6.63
2023-03-13T02:38:05.066Z,6.10
2023-03-13T02:40:35.360Z,7.13
2023-03-13T02:43:08.390Z,6.40
2023-03-13T02:45:37.063Z,6.67
2023-03-13T02:48:05.664Z,6.87
2023-03-13T02:50:34.656Z,7.17
2023-03-13T02:53:05.539Z,7.20
2023-03-13T02:55:37.085Z,7.10
2023-03-13T02:58:07.060Z,7.50
2023-03-13T03:00:35.829Z,8.07
2023-03-13T03:03:04.279Z,7.63
2023-03-13T03:05:32.699Z,8.03
2023-03-13T03:08:01.061Z,8.27
2023-03-13T03:10:29.540Z,8.67
2023-03-13T03:12:57.972Z,8.73
2023-03-13T03:15:27.709Z,9.30
2023-03-13T03:17:56.342Z,10.27
2023-03-13T03:20:24.750Z,9.60
2023-03-13T03:22:53.121Z,10.53
2023-03-13T03:25:21.913Z,10.73
2023-03-13T03:27:50.337Z,12.13
2023-03-13T03:30:18.844Z,12.50
2023-03-13T03:32:48.799Z,14.47
2023-03-13T03:35:17.322Z,15.67
2023-03-13T03:37:45.764Z,15.23
2023-03-13T03:40:14.757Z,15.37
2023-03-13T03:42:43.184Z,16.63
2023-03-13T03:45:11.961Z,17.47
2023-03-13T03:47:40.333Z,16.90
2023-03-13T03:50:11.207Z,17.83
2023-03-13T03:52:40.019Z,18.53
2023-03-13T03:55:08.671Z,18.83
2023-03-13T03:57:37.083Z,18.50
2023-03-13T04:00:07.820Z,18.63
2023-03-13T04:02:36.494Z,18.23
2023-03-13T04:05:05.375Z,18.43
2023-03-13T04:07:35.275Z,18.53
2023-03-13T04:10:03.673Z,18.30
2023-03-13T04:12:32.090Z,17.87
2023-03-13T04:15:00.493Z,18.30
2023-03-13T04:17:28.945Z,17.53
2023-03-13T04:19:57.375Z,18.00
2023-03-13T04:22:25.753Z,17.67
2023-03-13T04:24:55.521Z,16.73
2023-03-13T04:27:23.989Z,16.27
2023-03-13T04:29:52.386Z,15.83
2023-03-13T04:32:20.866Z,17.10
2023-03-13T04:34:49.306Z,16.67
2023-03-13T04:37:17.786Z,16.20
2023-03-13T04:39:47.290Z,16.00
2023-03-13T04:42:17.083Z,16.53
2023-03-13T04:44:45.499Z,15.43
2023-03-13T04:47:13.903Z,15.40
2023-03-13T04:49:42.308Z,15.20
2023-03-13T04:52:10.727Z,14.27
2023-03-13T04:54:39.110Z,13.87
2023-03-13T04:57:07.903Z,13.53
2023-03-13T04:59:37.706Z,13.27
2023-03-13T05:02:06.090Z,13.60
2023-03-13T05:04:34.568Z,13.47
2023-03-13T05:07:02.976Z,13.03
2023-03-13T05:09:31.376Z,13.50
2023-03-13T05:11:59.783Z,13.23
2023-03-13T05:14:28.211Z,13.27
2023-03-13T05:16:57.971Z,13.07
2023-03-13T05:19:26.360Z,13.77
2023-03-13T05:21:54.748Z,13.27
2023-03-13T05:24:23.275Z,13.70
2023-03-13T05:26:51.683Z,14.23
2023-03-13T05:29:20.238Z,13.57
2023-03-13T05:31:48.610Z,14.77
2023-03-13T05:34:18.512Z,13.87
2023-03-13T05:36:46.900Z,14.53
2023-03-13T05:39:15.416Z,13.80
2023-03-13T05:41:44.101Z,13.63
2023-03-13T05:44:12.487Z,13.57
2023-03-13T05:46:40.875Z,14.37
2023-03-13T05:49:09.312Z,14.37
2023-03-13T05:51:39.073Z,13.10
2023-03-13T05:54:07.516Z,13.57
2023-03-13T05:56:35.909Z,13.33
2023-03-13T05:59:04.286Z,13.60
2023-03-13T06:01:32.655Z,13.20
2023-03-13T06:04:01.623Z,12.67
2023-03-13T06:06:30.072Z,13.73
2023-03-13T06:08:59.817Z,12.87
2023-03-13T06:11:28.236Z,12.43
2023-03-13T06:13:56.607Z,13.13
2023-03-13T06:16:25.079Z,12.60
2023-03-13T06:18:53.558Z,13.67
2023-03-13T06:21:21.979Z,13.67
2023-03-13T06:23:50.361Z,15.07
2023-03-13T06:26:20.188Z,15.80
2023-03-13T06:28:48.597Z,14.93
2023-03-13T06:31:17.027Z,15.20
2023-03-13T06:33:45.452Z,13.93
2023-03-13T06:36:14.118Z,14.43
2023-03-13T06:38:42.603Z,14.77
2023-03-13T06:41:11.122Z,13.13
2023-03-13T06:43:41.045Z,13.17
2023-03-13T06:46:10.072Z,12.63
2023-03-13T06:48:38.472Z,13.33
2023-03-13T06:51:07.035Z,12.20
2023-03-13T06:53:35.519Z,12.27
2023-03-13T06:56:03.964Z,12.90
2023-03-13T06:58:33.099Z,13.10
2023-03-13T07:01:08.594Z,13.37
2023-03-13T07:03:37.264Z,12.07
2023-03-13T07:06:06.640Z,12.13
2023-03-13T07:08:35.757Z,12.70
2023-03-13T07:11:04.757Z,11.00
2023-03-13T07:13:33.548Z,11.27
2023-03-13T07:16:04.475Z,10.83
2023-03-13T07:18:33.101Z,10.53
2023-03-13T07:21:02.086Z,10.27
2023-03-13T07:23:30.972Z,9.77
2023-03-13T07:26:00.306Z,10.77
2023-03-13T07:28:29.582Z,9.93
2023-03-13T07:30:58.096Z,9.30
2023-03-13T07:33:27.866Z,5.80
2023-03-13T07:35:56.321Z,4.67
2023-03-13T07:38:24.792Z,4.00
2023-03-13T07:40:53.896Z,3.77
2023-03-13T07:43:22.599Z,5.50
2023-03-13T07:45:55.037Z,7.53
2023-03-13T07:48:24.134Z,8.27
2023-03-13T07:50:53.934Z,9.13
2023-03-13T07:53:22.391Z,9.27
2023-03-13T07:55:54.470Z,9.03
2023-03-13T07:58:23.457Z,6.30
2023-03-13T08:00:51.916Z,7.57
2023-03-13T08:03:20.464Z,7.80
2023-03-13T08:05:49.107Z,8.23
2023-03-13T08:08:18.870Z,7.60
2023-03-13T08:10:47.271Z,8.17
2023-03-13T08:13:15.745Z,5.90
2023-03-13T08:15:44.111Z,6.10
2023-03-13T08:18:12.500Z,6.90
2023-03-13T08:20:40.925Z,5.33
2023-03-13T08:23:09.299Z,5.20
2023-03-13T08:25:39.057Z,6.20
2023-03-13T08:28:07.486Z,6.60
2023-03-13T08:30:35.886Z,5.23
2023-03-13T08:33:07.125Z,5.40
2023-03-13T08:35:36.089Z,6.47
2023-03-13T08:38:04.754Z,5.50
2023-03-13T08:40:33.158Z,4.93
2023-03-13T08:43:02.934Z,6.43
2023-03-13T08:45:31.298Z,5.93
2023-03-13T08:47:59.684Z,6.70
2023-03-13T08:50:28.117Z,6.70
2023-03-13T08:52:56.529Z,6.57
2023-03-13T08:55:26.520Z,8.10
2023-03-13T08:57:55.053Z,7.53
2023-03-13T09:00:25.105Z,7.10
2023-03-13T09:02:53.564Z,10.67
2023-03-13T09:05:22.049Z,9.47
2023-03-13T09:07:50.609Z,8.07
2023-03-13T09:10:19.075Z,7.47
2023-03-13T09:12:48.456Z,7.27
2023-03-13T09:15:16.840Z,7.60
2023-03-13T09:17:46.614Z,9.43
2023-03-13T09:20:15.261Z,9.83
2023-03-13T09:22:43.702Z,7.70
2023-03-13T09:25:12.337Z,7.60
2023-03-13T09:27:41.005Z,11.70
2023-03-13T09:30:10.075Z,10.40
2023-03-13T09:32:38.461Z,9.37
2023-03-13T09:35:08.707Z,9.20
2023-03-13T09:37:37.335Z,11.93
2023-03-13T09:40:08.526Z,10.40
2023-03-13T09:42:42.783Z,10.90
2023-03-13T09:45:14.324Z,8.93
2023-03-13T09:47:44.408Z,12.40
2023-03-13T09:50:16.860Z,10.43
2023-03-13T09:52:45.300Z,9.43
2023-03-13T09:55:16.647Z,9.07
2023-03-13T09:57:48.285Z,10.97
2023-03-13T10:00:20.412Z,9.80
2023-03-13T10:02:49.934Z,8.77
2023-03-13T10:05:22.355Z,9.07
2023-03-13T10:07:50.925Z,10.00
2023-03-13T10:10:21.003Z,9.90
2023-03-13T10:12:50.948Z,9.00
2023-03-13T10:15:31.769Z,9.07
2023-03-13T10:18:05.412Z,8.83
2023-03-13T10:20:36.710Z,9.20
2023-03-13T10:23:07.304Z,8.93
2023-03-13T10:25:38.434Z,8.73
2023-03-13T10:28:07.345Z,9.00
2023-03-13T10:30:36.615Z,8.83
2023-03-13T10:33:20.101Z,8.00
2023-03-13T10:36:01.123Z,8.87
2023-03-13T10:38:29.701Z,8.07
2023-03-13T10:41:01.845Z,8.63
2023-03-13T10:43:31.319Z,8.13
2023-03-13T10:46:01.006Z,7.90
2023-03-13T10:48:31.991Z,8.03
2023-03-13T10:51:02.530Z,7.40
2023-03-13T10:53:34.805Z,7.33
2023-03-13T10:56:05.730Z,7.73
2023-03-13T10:58:36.159Z,6.63
2023-03-13T11:01:18.937Z,6.47
2023-03-13T11:03:47.846Z,6.97
2023-03-13T11:06:26.900Z,7.13
2023-03-13T11:09:00.971Z,7.40
2023-03-13T11:11:31.126Z,6.60
2023-03-13T11:14:09.400Z,6.50
2023-03-13T11:16:41.274Z,6.03
2023-03-13T11:19:21.691Z,6.20
2023-03-13T11:21:55.925Z,6.23
2023-03-13T11:24:29.243Z,5.90
2023-03-13T11:27:05.012Z,5.80
2023-03-13T11:29:39.979Z,5.30
2023-03-13T11:32:13.037Z,5.83
2023-03-13T11:34:44.308Z,5.83
2023-03-13T11:37:16.108Z,6.00
2023-03-13T11:39:55.626Z,5.27
2023-03-13T11:42:57.052Z,5.73
2023-03-13T11:45:35.200Z,5.20
2023-03-13T11:48:09.616Z,4.80
2023-03-13T11:50:41.798Z,5.30
2023-03-13T11:53:18.725Z,4.80
2023-03-13T11:55:50.604Z,5.10
2023-03-13T11:58:27.934Z,5.10
2023-03-13T12:00:59.541Z,5.33
2023-03-13T12:03:32.424Z,4.87
2023-03-13T12:06:02.403Z,4.97
2023-03-13T12:08:33.851Z,4.33
2023-03-13T12:11:07.021Z,4.80
2023-03-13T12:13:38.261Z,5.20
2023-03-13T12:16:09.786Z,4.70
2023-03-13T12:18:40.325Z,4.80
2023-03-13T12:21:14.151Z,4.53
2023-03-13T12:23:48.272Z,4.50
2023-03-13T12:26:17.574Z,4.47
2023-03-13T12:28:47.259Z,5.40
2023-03-13T12:31:19.470Z,4.50
2023-03-13T12:33:50.032Z,4.77
2023-03-13T12:36:20.556Z,4.00
2023-03-13T12:38:53.112Z,4.53
2023-03-13T12:41:24.666Z,4.37
2023-03-13T12:44:07.847Z,3.87
2023-03-13T12:46:43.064Z,3.90
2023-03-13T12:49:41.424Z,4.63
2023-03-13T12:52:24.739Z,18.87
2023-03-13T12:55:07.679Z,42.77
2023-03-13T12:57:57.294Z,36.20
2023-03-13T13:00:28.095Z,21.90
2023-03-13T13:03:04.796Z,18.37
2023-03-13T13:05:33.232Z,22.90
2023-03-13T13:08:01.690Z,15.70
2023-03-13T13:10:31.584Z,9.73
2023-03-13T13:13:14.815Z,11.37
2023-03-13T13:15:46.814Z,11.77
2023-03-13T13:18:17.802Z,9.03
2023-03-13T13:20:48.084Z,7.33
2023-03-13T13:23:38.450Z,7.63
2023-03-13T13:26:26.597Z,6.70
2023-03-13T13:28:56.707Z,6.10
2023-03-13T13:31:47.794Z,6.47
2023-03-13T13:34:31.202Z,5.23
2023-03-13T13:37:00.106Z,5.20
2023-03-13T13:39:37.546Z,5.37
2023-03-13T13:42:43.702Z,4.80
2023-03-13T13:45:35.729Z,4.67
2023-03-13T13:48:25.547Z,4.70
2023-03-13T13:51:14.119Z,4.23
2023-03-13T13:53:45.094Z,3.67
2023-03-13T13:56:28.365Z,3.80
2023-03-13T13:58:58.419Z,4.20
2023-03-13T14:01:27.108Z,4.93
2023-03-13T14:04:13.065Z,4.40
2023-03-13T14:06:45.288Z,4.37
2023-03-13T14:09:16.555Z,3.97
2023-03-13T14:11:44.937Z,3.20
2023-03-13T14:14:16.336Z,3.00
2023-03-13T14:16:48.319Z,3.20
2023-03-13T14:19:27.488Z,2.97
2023-03-13T14:22:07.554Z,3.00
2023-03-13T14:24:36.234Z,3.33
2023-03-13T14:27:15.927Z,3.03
2023-03-13T14:29:44.335Z,2.90
2023-03-13T14:32:12.789Z,3.07
2023-03-13T14:34:41.205Z,2.97
2023-03-13T14:37:31.113Z,3.00
2023-03-13T14:40:09.554Z,2.73
2023-03-13T14:42:42.448Z,2.80
2023-03-13T14:45:17.307Z,3.00
2023-03-13T14:47:45.867Z,2.47
2023-03-13T14:50:15.312Z,2.40
2023-03-13T14:52:47.538Z,2.50
2023-03-13T14:55:29.933Z,2.60
2023-03-13T14:57:59.162Z,2.67
2023-03-13T15:00:33.844Z,2.83
2023-03-13T15:03:16.755Z,2.50
2023-03-13T15:05:45.491Z,2.60
2023-03-13T15:08:15.450Z,2.40
2023-03-13T15:10:45.367Z,2.60
2023-03-13T15:13:17.672Z,2.40
2023-03-13T15:15:46.157Z,2.57
2023-03-13T15:18:19.804Z,3.00
2023-03-13T15:20:51.129Z,2.80
2023-03-13T15:23:19.600Z,2.30
2023-03-13T15:25:49.620Z,2.60
2023-03-13T15:28:19.208Z,2.43
2023-03-13T15:30:48.786Z,2.50
2023-03-13T15:33:17.721Z,2.13
2023-03-13T15:35:46.495Z,2.40
2023-03-13T15:38:15.946Z,2.50
2023-03-13T15:40:44.760Z,2.17
2023-03-13T15:43:14.775Z,2.43
2023-03-13T15:45:44.395Z,2.10
2023-03-13T15:48:16.648Z,2.20
2023-03-13T15:50:45.066Z,2.30
2023-03-13T15:53:18.432Z,2.50
2023-03-13T15:55:46.955Z,2.43
2023-03-13T15:58:16.769Z,2.40
2023-03-13T16:00:45.988Z,2.20
2023-03-13T16:03:17.115Z,2.17
2023-03-13T16:05:45.584Z,2.30
2023-03-13T16:08:23.217Z,2.20
2023-03-13T16:11:02.582Z,2.07
2023-03-13T16:13:33.234Z,2.60
2023-03-13T16:16:01.721Z,2.63
2023-03-13T16:18:30.249Z,2.20
2023-03-13T16:20:58.665Z,2.20
2023-03-13T16:23:27.099Z,1.80
2023-03-13T16:25:55.500Z,2.13
2023-03-13T16:28:24.192Z,2.13
2023-03-13T16:30:56.266Z,2.50
2023-03-13T16:33:24.735Z,2.40
2023-03-13T16:35:54.669Z,1.97
2023-03-13T16:38:23.166Z,1.90
2023-03-13T16:40:51.847Z,2.10
2023-03-13T16:43:20.241Z,2.30
2023-03-13T16:45:48.675Z,1.90
2023-03-13T16:48:19.300Z,1.90
2023-03-13T16:50:47.711Z,1.80
2023-03-13T16:53:16.132Z,2.20
2023-03-13T16:55:44.550Z,2.60
2023-03-13T16:58:14.460Z,2.43
2023-03-13T17:00:46.885Z,2.10
2023-03-13T17:03:20.572Z,2.10
2023-03-13T17:05:48.989Z,2.40
2023-03-13T17:08:17.699Z,2.10
2023-03-13T17:13:20.429Z,2.40
2023-03-13T17:15:48.888Z,2.30
2023-03-13T17:18:17.373Z,2.70
2023-03-13T17:20:48.439Z,2.87
2023-03-13T17:23:16.840Z,2.17
2023-03-13T17:25:45.272Z,2.00
2023-03-13T17:28:15.076Z,2.40
2023-03-13T17:30:43.757Z,2.63
2023-03-13T17:33:12.150Z,2.37
2023-03-13T17:35:40.595Z,2.07
2023-03-13T17:38:12.273Z,2.30
2023-03-13T17:40:41.680Z,2.37
2023-03-13T17:43:10.259Z,2.20
2023-03-13T17:45:38.731Z,2.00
2023-03-13T17:48:07.947Z,2.33
2023-03-13T17:50:36.391Z,2.30
2023-03-13T17:53:04.813Z,2.53
2023-03-13T17:55:34.566Z,2.63
2023-03-13T17:58:02.953Z,2.60
2023-03-13T18:00:33.823Z,2.60
2023-03-13T18:03:02.629Z,2.30
2023-03-13T18:05:31.029Z,3.00
2023-03-13T18:07:59.842Z,2.73
2023-03-13T18:10:30.120Z,2.60
2023-03-13T18:12:59.917Z,2.93
2023-03-13T18:15:28.617Z,2.50
2023-03-13T18:17:57.062Z,2.97
2023-03-13T18:20:26.489Z,3.10
2023-03-13T18:22:59.301Z,2.97
2023-03-13T18:25:28.033Z,2.77
2023-03-13T18:27:56.418Z,3.17
2023-03-13T18:30:26.805Z,2.87
2023-03-13T18:32:55.430Z,2.83
2023-03-13T18:35:23.856Z,2.77
2023-03-13T18:37:52.434Z,3.20
2023-03-13T18:40:22.251Z,3.30
2023-03-13T18:42:50.714Z,3.10
2023-03-13T18:45:19.956Z,3.20
2023-03-13T18:47:50.037Z,3.10
2023-03-13T18:50:25.120Z,2.97
2023-03-13T18:52:55.391Z,3.23
2023-03-13T18:55:23.880Z,3.03
2023-03-13T18:57:52.261Z,3.50
2023-03-13T19:00:21.660Z,3.57
2023-03-13T19:02:51.458Z,3.17
2023-03-13T19:05:20.124Z,3.67
2023-03-13T19:07:48.815Z,3.40
2023-03-13T19:10:21.598Z,3.57
2023-03-13T19:12:50.030Z,3.77
2023-03-13T19:15:18.588Z,4.00
2023-03-13T19:17:47.557Z,3.83
2023-03-13T19:20:18.862Z,4.30
2023-03-13T19:22:47.521Z,3.90
2023-03-13T19:25:17.479Z,3.50
2023-03-13T19:27:45.999Z,3.73
2023-03-13T19:30:18.131Z,3.53
2023-03-13T19:32:46.567Z,3.20
2023-03-13T19:35:19.180Z,3.30
2023-03-13T19:37:49.475Z,3.27
2023-03-13T19:40:19.595Z,3.50
2023-03-13T19:42:48.007Z,3.53
2023-03-13T19:45:19.728Z,3.77
2023-03-13T19:47:48.195Z,3.97
2023-03-13T19:50:20.545Z,4.03
2023-03-13T19:52:50.560Z,3.97
2023-03-13T19:55:18.943Z,4.00
2023-03-13T19:57:47.520Z,4.10
2023-03-13T20:00:20.289Z,4.13
2023-03-13T20:02:48.817Z,4.27
2023-03-13T20:05:17.278Z,4.23
2023-03-13T20:07:46.618Z,4.60
2023-03-13T20:10:16.559Z,4.33
2023-03-13T20:12:44.970Z,4.57
2023-03-13T20:15:13.740Z,4.67
2023-03-13T20:17:42.175Z,4.40
2023-03-13T20:20:11.575Z,4.63
2023-03-13T20:22:39.956Z,4.33
2023-03-13T20:25:08.586Z,4.57
2023-03-13T20:27:39.151Z,4.07
2023-03-13T20:30:08.366Z,4.20
2023-03-13T20:32:39.293Z,4.37
2023-03-13T20:35:12.936Z,3.60
2023-03-13T20:37:41.808Z,3.80
2023-03-13T20:40:11.054Z,4.10
2023-03-13T20:42:41.156Z,3.70
2023-03-13T20:45:10.337Z,3.37
2023-03-13T20:47:38.755Z,3.80
2023-03-13T20:50:07.786Z,4.07
2023-03-13T20:52:36.363Z,3.37
2023-03-13T20:55:04.842Z,3.20
2023-03-13T20:57:33.217Z,3.13
2023-03-13T21:00:04.234Z,3.60
2023-03-13T21:02:33.069Z,3.47
2023-03-13T21:05:01.537Z,2.77
2023-03-13T21:07:29.976Z,3.07
2023-03-13T21:09:58.350Z,3.20
2023-03-13T21:12:26.733Z,3.20
2023-03-13T21:14:55.283Z,3.83
2023-03-13T21:17:25.057Z,3.60
2023-03-13T21:19:53.483Z,3.70
2023-03-13T21:22:23.507Z,3.40
2023-03-13T21:24:51.901Z,3.47
2023-03-13T21:27:20.276Z,3.37
2023-03-13T21:29:50.777Z,3.50
2023-03-13T21:32:19.561Z,3.30
2023-03-13T21:34:49.422Z,3.40
2023-03-13T21:37:17.869Z,3.33
2023-03-13T21:39:46.672Z,3.33
2023-03-13T21:42:15.228Z,3.37
2023-03-13T21:44:43.694Z,3.37
2023-03-13T21:47:12.228Z,4.50
2023-03-13T21:49:40.624Z,3.77
2023-03-13T21:52:10.416Z,3.80
2023-03-13T21:54:38.814Z,3.90
2023-03-13T21:57:07.621Z,3.73
2023-03-13T21:59:36.027Z,3.43
2023-03-13T22:02:04.427Z,3.43
2023-03-13T22:04:32.879Z,3.60
2023-03-13T22:07:01.326Z,3.37
2023-03-13T22:09:31.064Z,3.40
2023-03-13T22:11:59.446Z,4.03
2023-03-13T22:14:28.136Z,4.40
2023-03-13T22:16:56.614Z,3.63
2023-03-13T22:19:24.994Z,3.70
2023-03-13T22:21:53.390Z,4.23
2023-03-13T22:24:21.778Z,3.80
2023-03-13T22:26:51.532Z,3.50
2023-03-13T22:29:20.034Z,3.73
2023-03-13T22:31:48.405Z,3.60
2023-03-13T22:34:16.783Z,3.87
2023-03-13T22:36:45.181Z,4.03
2023-03-13T22:39:13.652Z,3.87
2023-03-13T22:41:42.219Z,4.50
2023-03-13T22:44:12.017Z,4.80
2023-03-13T22:46:40.390Z,4.83
2023-03-13T22:49:08.817Z,4.30
2023-03-13T22:51:37.458Z,4.50
2023-03-13T22:54:06.026Z,5.07
2023-03-13T22:56:34.408Z,4.70
2023-03-13T22:59:03.743Z,4.50
2023-03-13T23:01:33.717Z,4.37
2023-03-13T23:04:02.107Z,4.23
2023-03-13T23:06:30.567Z,4.50
2023-03-13T23:08:58.954Z,4.13
2023-03-13T23:11:27.363Z,4.33
2023-03-13T23:13:55.768Z,4.27
2023-03-13T23:16:24.142Z,4.03
2023-03-13T23:18:53.961Z,4.23
2023-03-13T23:21:22.483Z,4.67
2023-03-13T23:23:50.884Z,4.47
2023-03-13T23:26:19.249Z,4.73
2023-03-13T23:28:47.704Z,4.60
2023-03-13T23:31:17.052Z,4.10
2023-03-13T23:33:45.587Z,4.67
2023-03-13T23:36:16.816Z,4.30
2023-03-13T23:38:45.491Z,4.60
2023-03-13T23:41:14.694Z,4.30
2023-03-13T23:43:43.122Z,4.30
2023-03-13T23:46:17.423Z,4.50
2023-03-13T23:48:45.884Z,4.37
2023-03-13T23:51:15.710Z,4.60
2023-03-13T23:53:45.015Z,5.03
2023-03-13T23:56:13.987Z,4.57
2023-03-13T23:58:42.716Z,5.10
